createdAt,value
2022-10-26T00:00:43.673Z,12.02
2022-10-26T00:03:17.106Z,12.01
2022-10-26T00:05:49.384Z,11.62
2022-10-26T00:08:21.685Z,11.76
2022-10-26T00:10:57.262Z,11.85
2022-10-26T00:13:29.614Z,11.91
2022-10-26T00:16:07.047Z,11.69
2022-10-26T00:18:40.612Z,11.65
2022-10-26T00:21:13.515Z,11.73
2022-10-26T00:23:45.761Z,11.79
2022-10-26T00:26:18.185Z,11.61
2022-10-26T00:28:53.026Z,11.69
2022-10-26T00:31:25.368Z,11.77
2022-10-26T00:33:58.371Z,11.77
2022-10-26T00:36:30.687Z,11.83
2022-10-26T00:39:03.641Z,11.76
2022-10-26T00:41:35.987Z,11.77
2022-10-26T00:45:01.083Z,11.75
2022-10-26T00:47:38.435Z,11.79
2022-10-26T00:50:17.754Z,11.47
2022-10-26T00:52:52.166Z,11.48
2022-10-26T00:55:29.241Z,11.49
2022-10-26T00:58:05.770Z,11.61
2022-10-26T01:00:40.638Z,11.64
2022-10-26T01:03:13.013Z,11.66
2022-10-26T01:05:48.976Z,11.67
2022-10-26T01:08:21.351Z,11.73
2022-10-26T01:10:54.332Z,11.73
2022-10-26T01:13:29.903Z,11.70
2022-10-26T01:16:15.433Z,11.72
2022-10-26T01:18:59.203Z,11.75
2022-10-26T01:21:52.837Z,11.72
2022-10-26T01:25:02.109Z,11.68
2022-10-26T01:27:36.138Z,11.57
2022-10-26T01:30:26.576Z,11.47
2022-10-26T01:33:24.952Z,11.54
2022-10-26T01:36:09.664Z,11.45
2022-10-26T01:38:55.849Z,11.40
2022-10-26T01:41:32.251Z,10.99
2022-10-26T01:44:09.002Z,10.91
2022-10-26T01:46:45.749Z,11.01
2022-10-26T01:49:22.724Z,11.03
2022-10-26T01:51:55.009Z,10.69
2022-10-26T01:54:28.568Z,10.75
2022-10-26T01:57:04.793Z,10.72
2022-10-26T02:00:02.106Z,10.57
2022-10-26T02:02:59.026Z,10.59
2022-10-26T02:06:04.085Z,10.59
2022-10-26T02:08:56.795Z,10.64
2022-10-26T02:11:37.969Z,10.64
2022-10-26T02:14:18.111Z,10.50
2022-10-26T02:16:57.434Z,10.63
2022-10-26T02:19:37.223Z,10.69
2022-10-26T02:22:12.825Z,10.71
2022-10-26T02:24:46.833Z,10.59
2022-10-26T02:27:24.047Z,10.72
2022-10-26T02:29:57.902Z,10.66
2022-10-26T02:32:35.236Z,10.70
2022-10-26T02:35:09.511Z,10.73
2022-10-26T02:37:44.137Z,10.73
2022-10-26T02:40:21.019Z,10.64
2022-10-26T02:42:54.823Z,10.70
2022-10-26T02:45:32.787Z,10.47
2022-10-26T02:48:06.415Z,10.51
2022-10-26T02:50:48.442Z,10.50
2022-10-26T02:53:26.284Z,10.41
2022-10-26T02:56:03.869Z,10.41
2022-10-26T02:58:42.756Z,10.20
2022-10-26T03:01:15.557Z,10.23
2022-10-26T03:03:48.482Z,10.31
2022-10-26T03:06:22.577Z,10.06
2022-10-26T03:08:54.995Z,10.18
2022-10-26T03:11:27.274Z,10.25
2022-10-26T03:13:59.630Z,10.29
2022-10-26T03:16:31.952Z,10.34
2022-10-26T03:19:04.950Z,10.38
2022-10-26T03:21:37.917Z,10.29
2022-10-26T03:24:10.274Z,10.28
2022-10-26T03:26:42.561Z,10.36
2022-10-26T03:29:14.839Z,10.36
2022-10-26T03:31:48.211Z,10.31
2022-10-26T03:34:20.527Z,10.29
2022-10-26T03:36:53.526Z,10.24
2022-10-26T03:39:25.835Z,9.96
2022-10-26T03:41:58.851Z,10.00
2022-10-26T03:44:31.192Z,10.01
2022-10-26T03:47:03.477Z,9.87
2022-10-26T03:49:35.805Z,9.90
2022-10-26T03:52:08.771Z,9.99
2022-10-26T03:54:41.029Z,9.91
2022-10-26T03:57:13.307Z,9.97
2022-10-26T03:59:45.618Z,9.97
2022-10-26T04:02:17.914Z,9.96
2022-10-26T04:04:50.260Z,9.85
2022-10-26T04:07:23.309Z,9.57
2022-10-26T04:09:55.640Z,9.72
2022-10-26T04:12:27.983Z,9.82
2022-10-26T04:15:00.461Z,9.89
2022-10-26T04:17:32.847Z,9.94
2022-10-26T04:20:06.248Z,9.68
2022-10-26T04:22:39.248Z,9.72
2022-10-26T04:25:12.851Z,9.72
2022-10-26T04:27:45.184Z,9.77
2022-10-26T04:30:17.590Z,9.77
2022-10-26T04:32:50.095Z,9.65
2022-10-26T04:35:22.777Z,9.65
2022-10-26T04:37:58.756Z,9.75
2022-10-26T04:40:32.657Z,9.63
2022-10-26T04:43:04.971Z,9.64
2022-10-26T04:45:37.267Z,9.72
2022-10-26T04:48:11.549Z,9.79
2022-10-26T04:50:43.905Z,9.74
2022-10-26T04:53:16.990Z,9.73
2022-10-26T04:55:49.242Z,9.75
2022-10-26T04:58:21.567Z,9.78
2022-10-26T05:00:54.210Z,9.73
2022-10-26T05:03:26.507Z,9.55
2022-10-26T05:05:59.092Z,9.56
2022-10-26T05:08:32.063Z,9.49
2022-10-26T05:11:04.648Z,9.49
2022-10-26T05:13:36.926Z,9.42
2022-10-26T05:16:09.258Z,9.40
2022-10-26T05:18:41.752Z,9.42
2022-10-26T05:21:18.646Z,9.37
2022-10-26T05:23:53.187Z,9.34
2022-10-26T05:26:25.665Z,9.34
2022-10-26T05:28:58.018Z,9.37
2022-10-26T05:31:30.319Z,9.48
2022-10-26T05:34:02.888Z,9.45
2022-10-26T05:36:35.262Z,9.45
2022-10-26T05:39:08.391Z,9.44
2022-10-26T05:41:40.755Z,9.48
2022-10-26T05:44:13.043Z,9.47
2022-10-26T05:46:47.266Z,9.49
2022-10-26T05:49:19.580Z,9.51
2022-10-26T05:51:51.849Z,9.52
2022-10-26T05:54:24.815Z,9.53
2022-10-26T05:56:57.658Z,9.51
2022-10-26T05:59:30.750Z,9.52
2022-10-26T06:02:15.747Z,9.60
2022-10-26T06:04:49.037Z,9.59
2022-10-26T06:07:22.025Z,9.63
2022-10-26T06:09:55.648Z,9.69
2022-10-26T06:12:28.559Z,9.78
2022-10-26T06:15:01.432Z,9.87
2022-10-26T06:17:46.137Z,9.91
2022-10-26T06:20:36.206Z,10.00
2022-10-26T06:23:31.235Z,10.08
2022-10-26T06:26:13.895Z,10.15
2022-10-26T06:28:53.716Z,10.19
2022-10-26T06:31:25.950Z,10.23
2022-10-26T06:33:59.928Z,10.36
2022-10-26T06:36:32.919Z,10.49
2022-10-26T06:39:08.936Z,10.62
2022-10-26T06:41:42.676Z,10.76
2022-10-26T06:44:23.507Z,10.95
2022-10-26T06:47:05.533Z,11.21
2022-10-26T06:49:41.357Z,11.41
2022-10-26T06:52:18.084Z,11.55
2022-10-26T06:54:52.709Z,11.75
2022-10-26T06:57:32.365Z,12.07
2022-10-26T07:00:05.878Z,12.24
2022-10-26T07:02:38.281Z,12.31
2022-10-26T07:05:12.286Z,12.60
2022-10-26T07:07:47.030Z,12.81
2022-10-26T07:10:19.621Z,12.92
2022-10-26T07:12:52.728Z,13.16
2022-10-26T07:15:25.068Z,13.29
2022-10-26T07:17:57.365Z,13.57
2022-10-26T07:20:29.691Z,13.67
2022-10-26T07:23:02.259Z,13.79
2022-10-26T07:25:38.307Z,13.98
2022-10-26T07:28:11.448Z,14.18
2022-10-26T07:30:43.775Z,14.41
2022-10-26T07:33:16.141Z,14.46
2022-10-26T07:35:48.486Z,14.64
2022-10-26T07:38:20.801Z,14.83
2022-10-26T07:40:54.526Z,14.81
2022-10-26T07:43:27.519Z,15.04
2022-10-26T07:45:59.882Z,15.29
2022-10-26T07:48:32.515Z,15.47
2022-10-26T07:51:05.133Z,15.32
2022-10-26T07:53:37.473Z,15.42
2022-10-26T07:56:10.615Z,15.62
2022-10-26T07:58:43.569Z,15.81
2022-10-26T08:01:16.246Z,16.09
2022-10-26T08:03:52.337Z,16.42
2022-10-26T08:06:24.727Z,16.57
2022-10-26T08:08:56.998Z,16.81
2022-10-26T08:11:29.342Z,17.07
2022-10-26T08:14:03.871Z,17.32
2022-10-26T08:16:39.350Z,17.66
2022-10-26T08:19:11.739Z,17.80
2022-10-26T08:21:44.107Z,17.70
2022-10-26T08:24:16.378Z,17.63
2022-10-26T08:26:48.742Z,17.79
2022-10-26T08:29:21.683Z,18.04
2022-10-26T08:31:54.013Z,18.16
2022-10-26T08:34:26.314Z,18.13
2022-10-26T08:36:58.703Z,18.29
2022-10-26T08:39:31.041Z,18.51
2022-10-26T08:42:10.051Z,18.77
2022-10-26T08:44:46.309Z,18.96
2022-10-26T08:47:21.194Z,18.97
2022-10-26T08:49:59.648Z,19.34
2022-10-26T08:52:38.346Z,19.43
2022-10-26T08:55:15.806Z,19.51
2022-10-26T08:57:50.062Z,19.47
2022-10-26T09:00:26.300Z,19.72
2022-10-26T09:02:58.666Z,19.76
2022-10-26T09:05:43.495Z,19.67
2022-10-26T09:08:25.443Z,19.89
2022-10-26T09:11:07.734Z,19.94
2022-10-26T09:13:56.412Z,19.80
2022-10-26T09:16:40.903Z,20.15
2022-10-26T09:19:51.599Z,20.57
2022-10-26T09:22:30.618Z,20.26
2022-10-26T09:25:12.850Z,20.67
2022-10-26T09:27:49.192Z,20.67
2022-10-26T09:30:22.327Z,20.83
2022-10-26T09:32:58.699Z,20.51
2022-10-26T09:35:42.931Z,20.29
2022-10-26T09:38:23.630Z,20.66
2022-10-26T09:41:01.877Z,20.87
2022-10-26T09:43:42.559Z,20.89
2022-10-26T09:46:20.807Z,21.04
2022-10-26T09:48:57.828Z,21.49
2022-10-26T09:51:30.341Z,21.51
2022-10-26T09:54:13.313Z,21.15
2022-10-26T09:56:49.823Z,21.33
2022-10-26T09:59:24.018Z,21.59
2022-10-26T10:01:56.394Z,21.25
2022-10-26T10:04:33.035Z,20.85
2022-10-26T10:07:18.149Z,21.12
2022-10-26T10:10:07.351Z,21.37
2022-10-26T10:12:39.774Z,21.81
2022-10-26T10:15:21.145Z,22.23
2022-10-26T10:17:55.730Z,22.41
2022-10-26T10:20:31.806Z,22.50
2022-10-26T10:23:04.409Z,22.66
2022-10-26T10:25:39.187Z,22.65
2022-10-26T10:31:00.315Z,22.60
2022-10-26T10:33:38.125Z,22.62
2022-10-26T10:36:16.170Z,22.69
2022-10-26T10:38:50.631Z,22.52
2022-10-26T10:41:27.926Z,22.55
2022-10-26T10:44:07.218Z,22.26
2022-10-26T10:46:39.371Z,22.33
2022-10-26T10:49:19.926Z,22.21
2022-10-26T10:51:53.691Z,22.32
2022-10-26T10:54:29.570Z,22.26
2022-10-26T10:57:12.871Z,21.99
2022-10-26T10:59:55.531Z,21.84
2022-10-26T11:02:51.644Z,22.46
2022-10-26T11:05:43.925Z,22.56
2022-10-26T11:08:23.027Z,23.04
2022-10-26T11:11:02.827Z,23.25
2022-10-26T11:13:38.766Z,23.24
2022-10-26T11:16:16.333Z,23.20
2022-10-26T11:18:54.558Z,23.41
2022-10-26T11:21:28.948Z,23.60
2022-10-26T11:24:12.632Z,23.60
2022-10-26T11:26:53.235Z,23.84
2022-10-26T11:29:40.961Z,23.70
2022-10-26T11:32:19.026Z,23.87
2022-10-26T11:34:58.055Z,23.96
2022-10-26T11:37:36.792Z,23.83
2022-10-26T11:40:22.641Z,24.07
2022-10-26T11:43:05.182Z,23.87
2022-10-26T11:45:41.719Z,24.02
2022-10-26T11:48:19.852Z,24.30
2022-10-26T11:50:57.168Z,24.39
2022-10-26T11:53:36.051Z,24.62
2022-10-26T11:56:17.828Z,24.70
2022-10-26T11:58:50.723Z,24.66
2022-10-26T12:01:24.115Z,24.82
2022-10-26T12:04:00.706Z,24.40
2022-10-26T12:06:35.030Z,24.15
2022-10-26T12:09:13.629Z,23.98
2022-10-26T12:11:50.174Z,24.12
2022-10-26T12:14:29.024Z,24.43
2022-10-26T12:17:09.560Z,24.48
2022-10-26T12:19:49.685Z,24.60
2022-10-26T12:22:36.626Z,24.32
2022-10-26T12:25:20.061Z,24.66
2022-10-26T12:27:55.579Z,24.57
2022-10-26T12:30:30.188Z,24.31
2022-10-26T12:33:04.615Z,23.91
2022-10-26T12:35:41.995Z,24.18
2022-10-26T12:38:49.779Z,24.51
2022-10-26T12:41:26.062Z,24.59
2022-10-26T12:44:22.905Z,24.37
2022-10-26T12:46:55.900Z,23.74
2022-10-26T12:49:57.883Z,23.13
2022-10-26T12:52:49.870Z,22.91
2022-10-26T12:56:01.220Z,22.80
2022-10-26T12:59:06.671Z,22.70
2022-10-26T13:02:26.004Z,22.66
2022-10-26T13:05:34.927Z,22.33
2022-10-26T13:08:10.093Z,22.13
2022-10-26T13:11:00.041Z,22.12
2022-10-26T13:13:34.689Z,22.11
2022-10-26T13:16:11.297Z,22.10
2022-10-26T13:18:47.775Z,21.84
2022-10-26T13:21:22.189Z,21.78
2022-10-26T13:24:00.922Z,21.58
2022-10-26T13:27:11.662Z,21.51
2022-10-26T13:30:17.516Z,21.53
2022-10-26T13:32:54.067Z,21.57
2022-10-26T13:35:27.837Z,21.66
2022-10-26T13:38:06.067Z,21.55
2022-10-26T13:40:39.107Z,21.67
2022-10-26T13:43:19.352Z,21.65
2022-10-26T13:45:55.008Z,21.58
2022-10-26T13:48:36.447Z,21.55
2022-10-26T13:51:21.110Z,21.51
2022-10-26T13:53:59.982Z,21.35
2022-10-26T13:56:35.568Z,21.15
2022-10-26T13:59:10.526Z,21.03
2022-10-26T14:01:43.070Z,20.89
2022-10-26T14:04:16.363Z,20.70
2022-10-26T14:06:51.379Z,20.73
2022-10-26T14:09:24.118Z,20.81
2022-10-26T14:11:59.395Z,20.74
2022-10-26T14:14:35.959Z,20.69
2022-10-26T14:17:19.412Z,20.48
2022-10-26T14:19:52.374Z,20.34
2022-10-26T14:22:27.774Z,20.35
2022-10-26T14:25:00.974Z,20.43
2022-10-26T14:27:38.704Z,20.30
2022-10-26T14:30:23.459Z,20.25
2022-10-26T14:32:56.715Z,20.29
2022-10-26T14:35:35.307Z,20.26
2022-10-26T14:38:19.616Z,20.30
2022-10-26T14:40:54.931Z,20.24
2022-10-26T14:43:27.414Z,20.04
2022-10-26T14:45:59.871Z,20.10
2022-10-26T14:48:33.828Z,20.14
2022-10-26T14:51:15.315Z,20.16
2022-10-26T14:53:50.406Z,20.17
2022-10-26T14:56:37.797Z,20.17
2022-10-26T14:59:12.359Z,20.15
2022-10-26T15:01:50.644Z,20.14
2022-10-26T15:04:30.002Z,20.07
2022-10-26T15:07:19.957Z,19.95
2022-10-26T15:09:53.151Z,19.99
2022-10-26T15:12:32.132Z,19.93
2022-10-26T15:15:19.287Z,19.80
2022-10-26T15:17:54.126Z,19.67
2022-10-26T15:20:28.629Z,19.57
2022-10-26T15:23:03.330Z,19.39
2022-10-26T15:25:50.440Z,19.18
2022-10-26T15:28:25.221Z,19.10
2022-10-26T15:31:02.564Z,19.04
2022-10-26T15:33:35.709Z,18.61
2022-10-26T15:36:14.166Z,18.58
2022-10-26T15:38:47.759Z,18.25
2022-10-26T15:41:25.045Z,18.29
2022-10-26T15:44:00.595Z,18.10
2022-10-26T15:46:35.523Z,17.95
2022-10-26T15:49:14.811Z,17.89
2022-10-26T15:51:48.640Z,17.81
2022-10-26T15:54:20.985Z,17.67
2022-10-26T15:56:55.425Z,17.54
2022-10-26T15:59:27.903Z,17.44
2022-10-26T16:02:00.383Z,17.10
2022-10-26T16:04:32.832Z,16.91
2022-10-26T16:07:06.820Z,16.74
2022-10-26T16:09:40.183Z,16.68
2022-10-26T16:12:13.742Z,16.54
2022-10-26T16:15:04.247Z,16.40
2022-10-26T16:17:37.583Z,16.27
2022-10-26T16:20:14.744Z,16.11
2022-10-26T16:22:47.614Z,15.96
2022-10-26T16:25:23.235Z,15.96
2022-10-26T16:27:56.292Z,15.86
2022-10-26T16:30:30.550Z,15.84
2022-10-26T16:33:03.147Z,15.60
2022-10-26T16:35:35.487Z,15.50
2022-10-26T16:38:07.814Z,15.37
2022-10-26T16:40:42.632Z,15.36
2022-10-26T16:43:15.730Z,15.31
2022-10-26T16:46:07.748Z,15.23
2022-10-26T16:48:41.847Z,15.15
2022-10-26T16:51:16.519Z,15.25
2022-10-26T16:53:50.715Z,15.18
2022-10-26T16:56:25.512Z,15.12
2022-10-26T16:58:58.499Z,14.97
2022-10-26T17:01:31.622Z,14.95
2022-10-26T17:06:41.475Z,14.78
2022-10-26T17:09:14.509Z,14.67
2022-10-26T17:11:46.852Z,14.62
2022-10-26T17:14:19.811Z,14.65
2022-10-26T17:16:52.147Z,14.69
2022-10-26T17:19:24.617Z,14.52
2022-10-26T17:21:56.991Z,14.52
2022-10-26T17:24:29.299Z,14.54
2022-10-26T17:27:01.794Z,14.56
2022-10-26T17:29:34.801Z,14.51
2022-10-26T17:32:07.138Z,14.34
2022-10-26T17:34:39.450Z,13.92
2022-10-26T17:37:11.767Z,14.00
2022-10-26T17:39:44.124Z,14.12
2022-10-26T17:42:16.480Z,14.06
2022-10-26T17:44:49.464Z,14.01
2022-10-26T17:47:21.825Z,13.86
2022-10-26T17:49:54.260Z,13.72
2022-10-26T17:52:26.701Z,13.80
2022-10-26T17:55:01.790Z,13.47
2022-10-26T17:57:35.213Z,13.38
2022-10-26T18:00:09.646Z,13.45
2022-10-26T18:02:47.720Z,13.54
2022-10-26T18:05:20.225Z,13.52
2022-10-26T18:07:52.739Z,13.40
2022-10-26T18:10:37.575Z,13.47
2022-10-26T18:13:10.081Z,13.34
2022-10-26T18:15:43.422Z,13.33
2022-10-26T18:18:15.869Z,13.10
2022-10-26T18:20:48.223Z,13.24
2022-10-26T18:23:20.540Z,13.15
2022-10-26T18:26:00.188Z,12.96
2022-10-26T18:28:33.205Z,12.97
2022-10-26T18:31:08.895Z,12.86
2022-10-26T18:33:41.697Z,12.74
2022-10-26T18:36:15.722Z,12.82
2022-10-26T18:38:48.713Z,12.78
2022-10-26T18:41:22.380Z,12.82
2022-10-26T18:43:58.075Z,12.79
2022-10-26T18:46:38.775Z,12.83
2022-10-26T18:49:13.250Z,12.72
2022-10-26T18:51:45.876Z,12.91
2022-10-26T18:54:18.190Z,12.84
2022-10-26T18:56:50.535Z,12.80
2022-10-26T18:59:22.876Z,12.83
2022-10-26T19:01:55.944Z,12.84
2022-10-26T19:04:28.433Z,12.83
2022-10-26T19:07:00.871Z,12.84
2022-10-26T19:09:33.254Z,12.77
2022-10-26T19:12:06.019Z,12.72
2022-10-26T19:14:38.468Z,12.66
2022-10-26T19:17:11.427Z,12.64
2022-10-26T19:19:43.760Z,12.60
2022-10-26T19:22:16.074Z,12.55
2022-10-26T19:24:48.445Z,12.45
2022-10-26T19:27:20.751Z,12.44
2022-10-26T19:29:53.259Z,12.37
2022-10-26T19:32:27.639Z,12.29
2022-10-26T19:35:00.122Z,12.27
2022-10-26T19:37:32.456Z,12.24
2022-10-26T19:40:05.611Z,12.06
2022-10-26T19:42:37.958Z,12.02
2022-10-26T19:45:10.654Z,12.04
2022-10-26T19:47:43.595Z,11.73
2022-10-26T19:50:16.159Z,11.78
2022-10-26T19:52:48.644Z,11.76
2022-10-26T19:55:21.096Z,11.79
2022-10-26T19:57:53.346Z,11.80
2022-10-26T20:00:25.676Z,11.82
2022-10-26T20:02:58.666Z,11.77
2022-10-26T20:05:31.338Z,11.74
2022-10-26T20:08:04.916Z,11.68
2022-10-26T20:10:40.974Z,11.59
2022-10-26T20:13:14.130Z,11.55
2022-10-26T20:15:46.489Z,11.47
2022-10-26T20:18:19.637Z,11.46
2022-10-26T20:20:51.979Z,11.36
2022-10-26T20:23:24.350Z,11.19
2022-10-26T20:25:59.591Z,11.24
2022-10-26T20:28:32.009Z,11.15
2022-10-26T20:31:04.663Z,11.08
2022-10-26T20:33:37.754Z,11.09
2022-10-26T20:36:10.270Z,10.99
2022-10-26T20:38:43.179Z,10.99
2022-10-26T20:41:16.086Z,10.99
2022-10-26T20:43:50.000Z,10.96
2022-10-26T20:46:26.626Z,10.91
2022-10-26T20:49:00.166Z,10.92
2022-10-26T20:51:47.599Z,10.86
2022-10-26T20:54:33.435Z,10.83
2022-10-26T20:57:08.411Z,10.80
2022-10-26T20:59:46.087Z,10.80
2022-10-26T21:02:18.386Z,10.77
2022-10-26T21:04:51.418Z,10.65
2022-10-26T21:07:23.848Z,10.61
2022-10-26T21:09:56.169Z,10.54
2022-10-26T21:12:28.495Z,10.52
2022-10-26T21:15:01.212Z,10.53
2022-10-26T21:17:33.931Z,10.50
2022-10-26T21:20:08.197Z,10.38
2022-10-26T21:22:40.539Z,10.27
2022-10-26T21:25:12.870Z,10.21
2022-10-26T21:27:45.217Z,10.22
2022-10-26T21:30:17.743Z,10.20
2022-10-26T21:32:50.642Z,10.09
2022-10-26T21:35:23.843Z,10.05
2022-10-26T21:37:56.283Z,9.93
2022-10-26T21:40:29.708Z,9.93
2022-10-26T21:43:02.060Z,9.93
2022-10-26T21:45:34.358Z,9.91
2022-10-26T21:48:06.768Z,9.87
2022-10-26T21:50:41.846Z,9.82
2022-10-26T21:53:14.187Z,9.75
2022-10-26T21:55:46.778Z,9.66
2022-10-26T21:58:19.082Z,9.69
2022-10-26T22:00:51.471Z,9.72
2022-10-26T22:03:23.907Z,9.65
2022-10-26T22:05:56.922Z,9.65
2022-10-26T22:08:29.875Z,9.49
2022-10-26T22:11:05.579Z,9.53
2022-10-26T22:13:37.922Z,9.40
2022-10-26T22:16:12.365Z,9.42
2022-10-26T22:18:45.718Z,9.39
2022-10-26T22:21:19.947Z,9.38
2022-10-26T22:23:52.865Z,9.27
2022-10-26T22:26:25.528Z,9.32
2022-10-26T22:28:57.914Z,9.29
2022-10-26T22:31:32.223Z,9.30
2022-10-26T22:34:07.839Z,9.29
2022-10-26T22:36:41.667Z,9.27
2022-10-26T22:39:14.020Z,9.26
2022-10-26T22:41:47.950Z,9.20
2022-10-26T22:44:20.348Z,9.21
2022-10-26T22:46:52.659Z,9.21
2022-10-26T22:49:25.042Z,9.21
2022-10-26T22:51:57.967Z,9.23
2022-10-26T22:54:30.375Z,9.22
2022-10-26T22:57:02.800Z,9.21
2022-10-26T22:59:35.198Z,9.18
2022-10-26T23:02:07.591Z,9.18
2022-10-26T23:04:40.042Z,9.13
2022-10-26T23:07:13.073Z,9.15
2022-10-26T23:09:45.404Z,9.11
2022-10-26T23:12:17.686Z,9.10
2022-10-26T23:14:49.980Z,9.07
2022-10-26T23:17:22.334Z,9.01
2022-10-26T23:19:56.039Z,8.93
2022-10-26T23:22:29.046Z,8.98
2022-10-26T23:25:01.455Z,8.91
2022-10-26T23:27:33.783Z,8.97
2022-10-26T23:30:07.446Z,8.99
2022-10-26T23:32:39.795Z,9.03
2022-10-26T23:35:12.303Z,9.09
2022-10-26T23:44:11.559Z,8.62
2022-10-26T23:46:44.030Z,8.58
2022-10-26T23:49:16.335Z,8.63
2022-10-26T23:51:48.651Z,8.69
2022-10-26T23:54:20.920Z,8.70
2022-10-26T23:56:53.231Z,8.65
2022-10-26T23:59:26.165Z,8.66
